Time;durP1;ratioP1;P1;durP2;ratioP2;P2;SDS_P1;SDS_P2;PMS_P1;PMS_P2;Temp;Humidity;BMP_temperature;BMP_pressure;BME280_temperature;BME280_humidity;BME280_pressure;Samples;Min_cycle;Max_cycle;Signal;HPM_P1;HPM_P2
2022/02/13 00:01:15;;;;;;;6.63;3.55;;;;;;;8.07;39.73;101633.06;5011721;28;20061;-77
2022/02/13 00:03:42;;;;;;;6.10;3.88;;;;;;;8.06;39.63;101631.34;5013034;28;20050;-78
2022/02/13 00:06:09;;;;;;;6.97;3.95;;;;;;;8.03;39.72;101632.34;5010914;28;20049;-78
2022/02/13 00:09:06;;;;;;;6.70;3.55;;;;;;;8.03;39.86;101628.75;5023898;28;20076;-78
2022/02/13 00:11:33;;;;;;;6.35;3.50;;;;;;;7.99;39.63;101617.19;4999320;28;20465;-77
2022/02/13 00:13:59;;;;;;;8.57;4.05;;;;;;;8.00;40.00;101615.34;5014394;28;20670;-78
2022/02/13 00:16:26;;;;;;;5.78;3.10;;;;;;;7.98;39.55;101615.44;5016020;28;20077;-77
2022/02/13 00:18:52;;;;;;;7.43;3.65;;;;;;;7.98;39.82;101609.16;5011237;28;20054;-78
2022/02/13 00:22:07;;;;;;;7.70;3.58;;;;;;;7.98;39.75;101612.75;5010636;28;20056;-78
2022/02/13 00:24:33;;;;;;;6.57;3.60;;;;;;;7.96;40.05;101614.63;5015008;28;20076;-78
2022/02/13 00:27:00;;;;;;;8.15;3.97;;;;;;;7.93;39.74;101609.34;5011319;28;20505;-78
2022/02/13 00:29:31;;;;;;;7.88;3.50;;;;;;;7.93;39.89;101606.63;5010771;28;20053;-78
2022/02/13 00:31:57;;;;;;;8.55;3.78;;;;;;;7.91;39.96;101603.13;5012039;28;20129;-77
2022/02/13 00:34:24;;;;;;;6.22;3.58;;;;;;;7.89;39.85;101596.03;5010395;28;20101;-78
2022/02/13 00:36:51;;;;;;;7.38;3.60;;;;;;;7.89;39.77;101599.63;5011799;28;20062;-77
2022/02/13 00:39:17;;;;;;;6.40;3.28;;;;;;;7.88;40.01;101594.28;5011452;28;20116;-77
2022/02/13 00:41:44;;;;;;;7.07;3.75;;;;;;;7.88;39.81;101597.88;5014996;28;20053;-78
2022/02/13 00:44:11;;;;;;;7.38;3.40;;;;;;;7.88;39.85;101595.16;5014638;28;20490;-78
2022/02/13 00:46:38;;;;;;;6.93;3.67;;;;;;;7.87;39.73;101588.00;5011788;28;20146;-78
2022/02/13 00:49:04;;;;;;;6.75;3.22;;;;;;;7.85;39.80;101587.16;5011372;28;20140;-78
2022/02/13 00:51:31;;;;;;;7.22;3.90;;;;;;;7.87;39.87;101588.00;5001013;28;20085;-78
2022/02/13 00:54:01;;;;;;;7.78;3.80;;;;;;;7.88;39.70;101588.88;5025550;28;20120;-78
2022/02/13 00:56:27;;;;;;;6.70;4.00;;;;;;;7.87;39.63;101576.28;5011147;28;20101;-78
2022/02/13 00:58:54;;;;;;;6.13;3.55;;;;;;;7.86;39.74;101575.41;5004614;28;20481;-78
2022/02/13 01:01:21;;;;;;;7.85;3.38;;;;;;;7.85;39.70;101573.66;5013966;28;20064;-78
2022/02/13 01:03:48;;;;;;;5.55;3.60;;;;;;;7.83;39.72;101567.44;5015831;28;20096;-78
2022/02/13 01:06:14;;;;;;;5.53;3.78;;;;;;;7.82;39.75;101573.81;5014331;28;20053;-77
2022/02/13 01:08:41;;;;;;;7.00;3.80;;;;;;;7.81;39.96;101561.25;5016219;28;20288;-78
2022/02/13 01:11:08;;;;;;;8.27;3.53;;;;;;;7.81;39.90;101574.75;5014064;28;20061;-77
2022/02/13 01:13:34;;;;;;;6.97;3.47;;;;;;;7.81;39.83;101571.16;5017072;28;20547;-77
2022/02/13 01:16:01;;;;;;;7.40;3.40;;;;;;;7.79;39.86;101565.81;5005536;28;20212;-77
2022/02/13 01:18:28;;;;;;;6.97;3.80;;;;;;;7.78;39.82;101572.16;5035366;28;20080;-77
2022/02/13 01:20:57;;;;;;;7.90;3.72;;;;;;;7.76;39.93;101576.75;5013900;28;20058;-78
2022/02/13 01:23:23;;;;;;;6.93;3.75;;;;;;;7.78;39.95;101574.00;5014184;28;20516;-78
2022/02/13 01:25:50;;;;;;;7.63;3.83;;;;;;;7.78;39.43;101579.41;5014303;28;20112;-78
2022/02/13 01:28:16;;;;;;;6.78;3.40;;;;;;;7.76;39.55;101574.06;5015912;28;20081;-78
2022/02/13 01:30:43;;;;;;;7.07;4.45;;;;;;;7.75;39.60;101568.72;5013892;28;20054;-77
2022/02/13 01:33:10;;;;;;;5.50;3.60;;;;;;;7.74;40.01;101567.81;5024639;28;20549;-78
2022/02/13 01:35:36;;;;;;;6.70;3.55;;;;;;;7.74;39.75;101557.00;5013625;28;20057;-78
2022/02/13 01:38:03;;;;;;;7.50;3.72;;;;;;;7.74;39.59;101556.16;5015497;28;20136;-77
2022/02/13 01:40:32;;;;;;;7.53;3.80;;;;;;;7.75;39.56;101549.78;5005287;28;20062;-78
2022/02/13 01:42:58;;;;;;;10.02;3.65;;;;;;;7.73;39.94;101547.19;5021335;28;20490;-77
2022/02/13 01:45:25;;;;;;;6.20;3.80;;;;;;;7.72;39.83;101542.72;5009802;28;20107;-78
2022/02/13 01:47:51;;;;;;;6.18;3.50;;;;;;;7.71;39.76;101535.56;5014523;28;20089;-78
2022/02/13 01:50:18;;;;;;;5.47;3.67;;;;;;;7.71;39.55;101542.78;5025276;28;20520;-78
2022/02/13 01:52:50;;;;;;;7.55;3.70;;;;;;;7.70;39.85;101524.81;5015772;28;20049;-77
2022/02/13 01:55:17;;;;;;;5.57;3.45;;;;;;;7.68;39.86;101529.38;5018308;28;20053;-78
2022/02/13 01:57:43;;;;;;;6.40;3.17;;;;;;;7.64;39.88;101529.53;5021527;28;20598;-78
2022/02/13 02:00:10;;;;;;;6.13;3.63;;;;;;;7.64;39.85;101537.66;5018073;28;20133;-77
2022/02/13 02:02:38;;;;;;;6.10;3.33;;;;;;;7.64;39.47;101526.84;5014006;28;20050;-77
2022/02/13 02:05:05;;;;;;;6.80;3.80;;;;;;;7.61;39.79;101517.97;5011896;28;20053;-77
2022/02/13 02:07:32;;;;;;;6.78;3.40;;;;;;;7.58;39.77;101518.97;5014846;28;20046;-78
2022/02/13 02:09:59;;;;;;;7.28;3.47;;;;;;;7.56;39.53;101520.00;5014033;28;20145;-77
2022/02/13 02:12:26;;;;;;;6.88;3.53;;;;;;;7.54;39.97;101516.50;5001479;28;20050;-77
2022/02/13 02:14:52;;;;;;;4.47;2.83;;;;;;;7.52;39.77;101524.66;5011555;28;20082;-78
2022/02/13 02:17:19;;;;;;;6.57;3.58;;;;;;;7.49;39.97;101522.13;5008212;28;20087;-77
2022/02/13 02:19:46;;;;;;;5.30;3.47;;;;;;;7.47;39.96;101520.41;5014058;28;20085;-77
2022/02/13 02:22:14;;;;;;;5.63;3.40;;;;;;;7.46;39.75;101519.53;5025047;28;20136;-77
2022/02/13 02:24:41;;;;;;;6.28;3.47;;;;;;;7.43;39.65;101518.78;5021209;28;20058;-77
2022/02/13 02:27:08;;;;;;;7.45;3.58;;;;;;;7.41;39.84;101516.13;5019760;28;20105;-77
2022/02/13 02:29:34;;;;;;;6.38;3.80;;;;;;;7.39;39.95;101506.34;5014389;28;20068;-78
2022/02/13 02:32:01;;;;;;;5.75;3.20;;;;;;;7.37;39.80;101511.81;5013147;28;20053;-77
2022/02/13 02:34:28;;;;;;;7.13;3.40;;;;;;;7.37;39.87;101516.34;5013275;28;20137;-77
2022/02/13 02:36:55;;;;;;;5.65;3.65;;;;;;;7.35;39.73;101507.41;5014143;28;20121;-77
2022/02/13 02:39:22;;;;;;;8.50;3.33;;;;;;;7.34;40.09;101503.84;5013779;28;20108;-78
2022/02/13 02:41:49;;;;;;;5.60;3.35;;;;;;;7.32;39.76;101499.47;5012525;28;20077;-77
2022/02/13 02:44:17;;;;;;;5.78;3.67;;;;;;;7.30;39.79;101496.81;5010942;28;20463;-78
2022/02/13 02:46:43;;;;;;;7.78;3.70;;;;;;;7.28;39.92;101498.72;5013455;28;20381;-77
2022/02/13 02:49:10;;;;;;;5.57;3.30;;;;;;;7.28;39.83;101492.44;5012854;28;20049;-77
2022/02/13 02:51:36;;;;;;;5.80;3.42;;;;;;;7.27;40.21;101491.53;5013897;28;20077;-77
2022/02/13 02:54:03;;;;;;;6.35;3.20;;;;;;;7.28;39.98;101487.91;5013883;28;20137;-78
2022/02/13 02:56:30;;;;;;;6.57;3.63;;;;;;;7.26;40.09;101477.16;5012433;28;20088;-77
2022/02/13 02:58:56;;;;;;;5.40;3.20;;;;;;;7.26;40.13;101471.75;5012742;28;20077;-77
2022/02/13 03:01:23;;;;;;;7.20;3.35;;;;;;;7.27;40.10;101472.63;5013105;28;20085;-77
2022/02/13 03:03:49;;;;;;;6.93;3.60;;;;;;;7.26;39.84;101466.34;5013981;28;20046;-77
2022/02/13 03:06:16;;;;;;;5.95;3.35;;;;;;;7.26;39.91;101460.06;5012529;28;20054;-77
2022/02/13 03:08:42;;;;;;;6.15;3.53;;;;;;;7.26;39.92;101449.28;5013897;28;20132;-77
2022/02/13 03:11:09;;;;;;;5.85;3.67;;;;;;;7.25;40.02;101452.91;5022353;28;20081;-77
2022/02/13 03:13:36;;;;;;;7.50;3.45;;;;;;;7.24;39.96;101441.25;5012952;28;20121;-77
2022/02/13 03:16:03;;;;;;;6.03;3.22;;;;;;;7.24;39.98;101445.78;5011335;28;20137;-77
2022/02/13 03:18:30;;;;;;;6.72;3.53;;;;;;;7.22;40.17;101450.38;5006008;28;20192;-77
2022/02/13 03:20:58;;;;;;;7.50;3.47;;;;;;;7.23;40.02;101444.91;5012172;28;20497;-77
2022/02/13 03:23:25;;;;;;;7.10;3.60;;;;;;;7.21;40.03;101441.38;5012283;28;20497;-77
2022/02/13 03:25:51;;;;;;;6.97;3.00;;;;;;;7.22;40.02;101434.16;5043265;28;20101;-77
2022/02/13 03:28:18;;;;;;;5.85;3.58;;;;;;;7.21;40.27;101435.97;5012285;28;20132;-78
2022/02/13 03:30:45;;;;;;;7.38;3.30;;;;;;;7.20;39.90;101428.81;5011393;28;20501;-77
2022/02/13 03:33:12;;;;;;;6.32;3.30;;;;;;;7.19;40.03;101424.38;5013498;28;20050;-77
2022/02/13 03:35:39;;;;;;;6.45;3.45;;;;;;;7.19;39.91;101428.88;5011798;28;20081;-77
2022/02/13 03:38:06;;;;;;;6.35;3.65;;;;;;;7.19;40.14;101420.78;5011177;28;20046;-77
2022/02/13 03:40:33;;;;;;;6.70;3.65;;;;;;;7.17;40.12;101419.97;4998946;28;20050;-77
2022/02/13 03:43:00;;;;;;;5.75;3.58;;;;;;;7.16;39.86;101416.41;5006440;28;20050;-78
2022/02/13 03:45:27;;;;;;;5.72;3.72;;;;;;;7.14;39.96;101403.91;5004542;28;20095;-77
2022/02/13 03:47:53;;;;;;;6.20;3.58;;;;;;;7.13;39.71;101408.44;5001171;28;20092;-77
2022/02/13 03:50:20;;;;;;;5.97;3.45;;;;;;;7.11;40.18;101404.91;5012320;28;20121;-77
2022/02/13 03:52:46;;;;;;;7.03;3.65;;;;;;;7.10;40.18;101405.88;5011943;28;20046;-77
2022/02/13 03:55:16;;;;;;;6.40;3.92;;;;;;;7.10;40.00;101399.59;5011195;28;20079;-77
2022/02/13 03:57:43;;;;;;;5.75;3.00;;;;;;;7.08;39.88;101396.94;5011840;28;20486;-77
2022/02/13 04:00:12;;;;;;;7.57;3.90;;;;;;;7.08;40.06;101399.66;5011358;28;20062;-77
2022/02/13 04:02:40;;;;;;;6.95;3.17;;;;;;;7.08;39.84;101396.09;5023056;28;20563;-77
2022/02/13 04:05:07;;;;;;;6.75;3.50;;;;;;;7.06;39.97;101396.16;5011271;28;20140;-78
2022/02/13 04:07:36;;;;;;;8.15;3.70;;;;;;;7.05;40.07;101401.63;5013002;28;20054;-77
2022/02/13 04:10:03;;;;;;;5.80;3.30;;;;;;;7.05;40.12;101399.81;5011708;28;20064;-77
2022/02/13 04:12:30;;;;;;;5.00;3.20;;;;;;;7.04;40.20;101400.75;5012482;28;20049;-77
2022/02/13 04:14:56;;;;;;;6.50;3.45;;;;;;;7.04;40.00;101397.16;5010604;28;20398;-77
2022/02/13 04:17:23;;;;;;;6.07;3.63;;;;;;;7.03;40.09;101398.97;5008036;28;20069;-77
2022/02/13 04:20:26;;;;;;;6.38;3.85;;;;;;;7.05;40.09;101391.69;5005485;28;20136;-78
2022/02/13 04:22:53;;;;;;;;;;;;;;;6.84;40.62;101389.91;5029023;28;20081;-78
2022/02/13 04:25:20;;;;;;;6.72;3.17;;;;;;;6.99;40.08;101393.78;5011177;28;19922;-77
2022/02/13 04:27:48;;;;;;;5.25;3.13;;;;;;;7.01;40.06;101395.47;5012470;28;20058;-77
2022/02/13 04:30:14;;;;;;;5.30;3.20;;;;;;;7.01;40.06;101381.97;5011370;28;20108;-77
2022/02/13 04:32:41;;;;;;;7.82;3.70;;;;;;;6.99;40.41;101383.00;5012400;28;20054;-77
2022/02/13 04:35:08;;;;;;;7.00;3.90;;;;;;;6.97;40.09;101377.66;5010860;28;20061;-77
2022/02/13 04:37:34;;;;;;;7.35;3.83;;;;;;;6.95;40.30;101368.75;5009994;28;20159;-78
2022/02/13 04:40:01;;;;;;;7.15;3.58;;;;;;;6.93;40.22;101372.44;5010095;28;20061;-77
2022/02/13 04:42:28;;;;;;;6.68;3.85;;;;;;;6.92;40.37;101368.03;5005689;28;20096;-77
2022/02/13 04:44:54;;;;;;;6.85;3.83;;;;;;;6.90;40.23;101370.78;5003304;28;20069;-77
2022/02/13 04:47:21;;;;;;;6.65;3.55;;;;;;;6.89;40.13;101369.03;5006993;28;20100;-77
2022/02/13 04:49:47;;;;;;;6.78;3.55;;;;;;;6.88;40.08;101367.25;5010132;28;20061;-77
2022/02/13 04:52:14;;;;;;;5.70;3.63;;;;;;;6.87;39.78;101360.09;5011944;28;20779;-77
2022/02/13 04:54:40;;;;;;;5.45;3.40;;;;;;;6.85;40.17;101354.75;5010032;28;20117;-76
2022/02/13 04:57:07;;;;;;;6.85;3.80;;;;;;;6.83;40.15;101359.38;5006111;28;20497;-77
2022/02/13 04:59:37;;;;;;;7.63;3.58;;;;;;;6.83;40.00;101355.81;5011357;28;20077;-77
2022/02/13 05:02:04;;;;;;;5.97;3.38;;;;;;;6.81;40.07;101352.28;5012068;28;20085;-77
2022/02/13 05:04:32;;;;;;;7.70;3.65;;;;;;;6.79;40.14;101343.38;5010337;28;20133;-77
2022/02/13 05:06:58;;;;;;;8.25;4.32;;;;;;;6.76;40.34;101348.88;5010151;28;20128;-77
2022/02/13 05:09:25;;;;;;;5.82;3.42;;;;;;;6.74;40.46;101337.31;5010201;28;20046;-77
2022/02/13 05:11:52;;;;;;;6.68;3.88;;;;;;;6.72;40.26;101337.38;5011846;28;20335;-77
2022/02/13 05:14:19;;;;;;;7.72;3.63;;;;;;;6.71;40.07;101329.31;5010271;28;20074;-77
2022/02/13 05:16:45;;;;;;;7.95;3.60;;;;;;;6.70;40.21;101336.53;5011066;28;20045;-77
2022/02/13 05:19:13;;;;;;;6.88;3.75;;;;;;;6.69;40.28;101328.50;5011351;28;20192;-77
2022/02/13 05:21:40;;;;;;;7.03;3.58;;;;;;;6.68;40.12;101340.25;5010899;28;20108;-77
2022/02/13 05:24:07;;;;;;;8.00;3.72;;;;;;;6.66;40.35;101323.28;5011659;28;20104;-77
2022/02/13 05:26:35;;;;;;;6.85;3.85;;;;;;;6.65;40.25;101321.50;5009136;28;20050;-77
2022/02/13 05:29:03;;;;;;;5.57;3.67;;;;;;;6.64;40.47;101323.31;5011410;28;20058;-77
2022/02/13 05:31:30;;;;;;;6.43;3.65;;;;;;;6.64;40.25;101327.84;5010616;28;20050;-78
2022/02/13 05:34:00;;;;;;;8.27;4.05;;;;;;;6.64;40.34;101322.44;5011790;28;20153;-77
2022/02/13 05:36:28;;;;;;;7.50;3.97;;;;;;;6.63;40.04;101312.59;5010227;28;20054;-77
2022/02/13 05:38:55;;;;;;;8.75;3.95;;;;;;;6.61;40.27;101306.38;5011836;28;20079;-76
2022/02/13 05:41:21;;;;;;;5.97;3.45;;;;;;;6.61;40.35;101309.97;5009987;28;20060;-76
2022/02/13 05:43:48;;;;;;;9.35;3.60;;;;;;;6.61;40.13;101320.75;5014971;28;20145;-76
2022/02/13 05:46:18;;;;;;;6.18;3.80;;;;;;;6.60;40.16;101310.91;5013325;28;20050;-77
2022/02/13 05:48:45;;;;;;;7.63;3.90;;;;;;;6.60;40.36;101304.63;5014982;28;20085;-77
2022/02/13 05:51:14;;;;;;;7.78;3.97;;;;;;;6.62;40.50;101297.34;5014645;28;20141;-76
2022/02/13 05:53:43;;;;;;;8.20;4.22;;;;;;;6.60;40.23;101305.50;5015480;28;20504;-77
2022/02/13 05:56:10;;;;;;;9.05;4.22;;;;;;;6.61;40.44;101303.69;5002967;28;20557;-76
2022/02/13 05:58:39;;;;;;;6.65;3.70;;;;;;;6.61;40.50;101298.28;5019435;28;20089;-76
2022/02/13 06:01:06;;;;;;;7.82;4.13;;;;;;;6.59;40.33;101298.34;5022014;28;20472;-76
2022/02/13 06:03:32;;;;;;;6.05;3.72;;;;;;;6.60;40.35;101297.41;5015439;28;20504;-77
2022/02/13 06:05:59;;;;;;;5.78;3.63;;;;;;;6.58;40.40;101288.53;5012191;28;20058;-77
2022/02/13 06:08:26;;;;;;;6.20;3.78;;;;;;;6.57;40.65;101294.88;5015329;28;20080;-77
2022/02/13 06:10:52;;;;;;;6.78;3.90;;;;;;;6.56;40.26;101293.09;5010343;28;20153;-77
2022/02/13 06:13:19;;;;;;;7.53;3.75;;;;;;;6.56;40.28;101292.22;5013750;28;20050;-77
2022/02/13 06:15:45;;;;;;;6.22;3.35;;;;;;;6.55;40.49;101294.03;5012680;28;20088;-77
2022/02/13 06:18:12;;;;;;;8.77;3.88;;;;;;;6.55;40.35;101287.78;5015187;28;20050;-77
2022/02/13 06:20:41;;;;;;;7.53;4.20;;;;;;;6.55;40.60;101285.94;5014052;28;20454;-77
2022/02/13 06:23:09;;;;;;;7.68;4.30;;;;;;;6.56;40.51;101285.00;5014906;28;20608;-77
2022/02/13 06:25:37;;;;;;;7.43;3.63;;;;;;;6.58;40.71;101293.06;5013013;28;20053;-77
2022/02/13 06:28:04;;;;;;;7.78;4.43;;;;;;;6.57;40.35;101294.00;5009970;28;20098;-77
2022/02/13 06:30:31;;;;;;;6.97;4.07;;;;;;;6.57;40.63;101297.56;5006602;28;20112;-77
2022/02/13 06:32:59;;;;;;;6.65;3.97;;;;;;;6.58;40.59;101296.63;5014446;28;20682;-77
2022/02/13 06:35:26;;;;;;;7.72;4.10;;;;;;;6.58;40.50;101293.06;5013002;28;20457;-77
2022/02/13 06:37:58;;;;;;;8.85;4.53;;;;;;;6.61;40.55;101290.19;5013579;28;20073;-77
2022/02/13 06:40:25;;;;;;;8.13;4.05;;;;;;;6.58;40.64;101288.53;5012751;28;20081;-77
2022/02/13 06:42:52;;;;;;;7.28;4.53;;;;;;;6.60;40.67;101285.75;5011211;28;20116;-77
2022/02/13 06:45:18;;;;;;;6.95;4.15;;;;;;;6.60;40.71;101296.53;5007705;28;20472;-77
2022/02/13 06:47:45;;;;;;;7.80;4.10;;;;;;;6.59;40.71;101287.56;5014275;28;20076;-77
2022/02/13 06:50:12;;;;;;;8.05;4.28;;;;;;;6.61;40.75;101284.81;5013544;28;20069;-77
2022/02/13 06:52:39;;;;;;;7.30;3.92;;;;;;;6.60;40.42;101285.75;5013215;28;20485;-77
2022/02/13 06:55:05;;;;;;;7.70;4.32;;;;;;;6.60;40.48;101278.53;5011460;28;20057;-77
2022/02/13 06:57:32;;;;;;;6.53;4.07;;;;;;;6.60;40.83;101277.66;4999640;28;20085;-78
2022/02/13 06:59:59;;;;;;;7.45;3.80;;;;;;;6.60;40.78;101266.84;5012954;28;20062;-77
2022/02/13 07:02:25;;;;;;;6.18;4.30;;;;;;;6.60;40.70;101278.53;5013024;28;20053;-77
2022/02/13 07:04:54;;;;;;;7.18;4.10;;;;;;;6.61;40.47;101282.97;5012479;28;20468;-77
2022/02/13 07:07:20;;;;;;;7.10;4.03;;;;;;;6.63;40.79;101274.81;5012515;28;20126;-76
2022/02/13 07:09:47;;;;;;;6.57;3.88;;;;;;;6.62;40.68;101268.56;5012934;28;20093;-76
2022/02/13 07:12:13;;;;;;;8.15;4.30;;;;;;;6.63;40.57;101281.09;5014096;28;20057;-76
2022/02/13 07:14:41;;;;;;;7.65;4.20;;;;;;;6.62;40.69;101271.25;5011799;28;20140;-76
2022/02/13 07:17:08;;;;;;;8.52;4.00;;;;;;;6.63;40.70;101264.03;5012660;28;20053;-77
2022/02/13 07:19:34;;;;;;;8.05;4.80;;;;;;;6.62;40.62;101262.28;5012726;28;20556;-76
2022/02/13 07:22:01;;;;;;;7.95;4.95;;;;;;;6.60;40.83;101262.34;5007782;28;20079;-77
2022/02/13 07:24:29;;;;;;;7.68;4.53;;;;;;;6.61;40.90;101265.91;5018470;28;20069;-76
2022/02/13 07:26:56;;;;;;;7.13;4.05;;;;;;;6.63;41.09;101254.13;5011829;28;20085;-77
2022/02/13 07:29:22;;;;;;;7.18;4.20;;;;;;;6.65;41.07;101235.19;5012105;28;20050;-77
2022/02/13 07:31:49;;;;;;;8.52;3.88;;;;;;;6.69;41.33;101237.66;5011945;28;20390;-77
2022/02/13 07:34:15;;;;;;;6.88;4.28;;;;;;;6.73;41.40;101227.63;5019187;28;20123;-76
2022/02/13 07:36:42;;;;;;;7.90;5.10;;;;;;;6.77;41.27;101231.91;5011353;28;20049;-77
2022/02/13 07:39:10;;;;;;;7.15;4.60;;;;;;;6.80;41.15;101231.78;5012640;28;20138;-77
2022/02/13 07:41:39;;;;;;;7.90;4.95;;;;;;;6.79;40.88;101222.81;4976444;28;20057;-77
2022/02/13 07:44:05;;;;;;;7.25;4.25;;;;;;;6.80;40.88;101211.06;4998517;28;20053;-77
2022/02/13 07:46:32;;;;;;;7.20;4.88;;;;;;;6.79;40.98;101206.63;5010728;28;20050;-77
2022/02/13 07:49:00;;;;;;;6.82;3.97;;;;;;;6.81;40.95;101203.84;5013556;28;20058;-77
2022/02/13 07:51:27;;;;;;;8.57;4.50;;;;;;;6.80;40.81;101212.91;5011902;28;20062;-77
2022/02/13 07:53:54;;;;;;;7.57;4.28;;;;;;;6.79;40.46;101200.34;5011567;28;20064;-77
2022/02/13 07:56:21;;;;;;;7.38;3.92;;;;;;;6.77;40.66;101204.94;5011408;28;20061;-77
2022/02/13 07:58:47;;;;;;;6.32;3.90;;;;;;;6.78;40.91;101199.47;5012724;28;20595;-77
2022/02/13 08:01:14;;;;;;;6.10;3.83;;;;;;;6.79;40.82;101193.13;5011456;28;20532;-77
2022/02/13 08:03:41;;;;;;;7.40;4.28;;;;;;;6.79;40.69;101194.94;5012931;28;20147;-77
2022/02/13 08:06:15;;;;;;;6.22;4.07;;;;;;;6.78;40.97;101195.88;4999486;28;20054;-77
2022/02/13 08:08:41;;;;;;;6.95;4.28;;;;;;;6.80;40.84;101194.00;5011616;28;20108;-77
2022/02/13 08:11:09;;;;;;;6.75;3.63;;;;;;;6.81;40.72;101190.38;5037926;28;20096;-76
2022/02/13 08:13:35;;;;;;;6.72;4.10;;;;;;;6.83;40.71;101185.78;5026223;28;20046;-76
2022/02/13 08:16:03;;;;;;;7.03;3.83;;;;;;;6.83;40.79;101174.97;5008948;28;20053;-77
2022/02/13 08:18:29;;;;;;;5.25;3.55;;;;;;;6.84;40.68;101182.09;5011266;28;20046;-77
2022/02/13 08:20:56;;;;;;;6.80;4.00;;;;;;;6.87;40.80;101177.44;5011953;28;20456;-77
2022/02/13 08:23:23;;;;;;;5.82;3.50;;;;;;;6.88;40.63;101187.31;5012200;28;20119;-78
2022/02/13 08:25:51;;;;;;;7.30;3.95;;;;;;;6.91;41.06;101178.19;5007256;28;20054;-78
2022/02/13 08:28:18;;;;;;;8.00;4.07;;;;;;;6.95;40.58;101187.00;5005244;28;20078;-76
2022/02/13 08:30:46;;;;;;;7.97;3.83;;;;;;;6.97;40.64;101183.31;5010463;28;20058;-77
2022/02/13 08:33:15;;;;;;;6.15;3.58;;;;;;;7.00;40.48;101176.91;5010247;28;20489;-77
2022/02/13 08:35:42;;;;;;;6.97;3.83;;;;;;;7.01;40.71;101184.03;5008225;28;20144;-77
2022/02/13 08:38:08;;;;;;;5.93;3.75;;;;;;;7.05;40.44;101185.66;5011970;28;20482;-77
2022/02/13 08:40:36;;;;;;;5.55;3.40;;;;;;;7.07;40.59;101181.06;5010354;28;20156;-76
2022/02/13 08:43:02;;;;;;;6.53;3.67;;;;;;;7.09;40.50;101184.53;5011926;28;20157;-77
2022/02/13 08:45:30;;;;;;;6.05;3.92;;;;;;;7.13;40.62;101186.16;5009545;28;20112;-77
2022/02/13 08:47:57;;;;;;;7.15;3.83;;;;;;;7.15;40.58;101173.47;5011433;28;20133;-77
2022/02/13 08:50:25;;;;;;;6.40;3.83;;;;;;;7.16;40.33;101170.69;4999743;28;20059;-78
2022/02/13 08:52:52;;;;;;;6.15;4.07;;;;;;;7.19;40.49;101172.34;4990837;28;20494;-77
2022/02/13 08:55:20;;;;;;;7.55;4.07;;;;;;;7.22;40.74;101175.81;4989899;28;20462;-77
2022/02/13 08:57:47;;;;;;;6.63;3.83;;;;;;;7.25;40.59;101178.34;4991792;28;20105;-77
2022/02/13 09:00:17;;;;;;;6.78;4.30;;;;;;;7.30;40.59;101179.94;5001862;28;20050;-77
2022/02/13 09:02:44;;;;;;;6.45;3.60;;;;;;;7.33;40.80;101169.00;5011557;28;20077;-77
2022/02/13 09:05:11;;;;;;;6.75;3.72;;;;;;;7.36;40.69;101167.03;5009717;28;20092;-77
2022/02/13 09:07:39;;;;;;;7.15;4.05;;;;;;;7.42;40.75;101164.00;5009307;28;20124;-76
2022/02/13 09:10:08;;;;;;;7.60;3.90;;;;;;;7.46;41.11;101160.22;5010126;28;20112;-77
2022/02/13 09:12:34;;;;;;;7.57;3.85;;;;;;;7.51;40.60;101165.38;5009955;28;20140;-77
2022/02/13 09:15:01;;;;;;;6.32;3.58;;;;;;;7.56;40.93;101169.63;5003932;28;20124;-77
2022/02/13 09:17:28;;;;;;;7.13;3.55;;;;;;;7.62;40.66;101153.09;5011152;28;20119;-78
2022/02/13 09:19:54;;;;;;;5.60;3.72;;;;;;;7.67;40.62;101150.16;5010378;28;20083;-78
2022/02/13 09:22:21;;;;;;;7.10;4.10;;;;;;;7.74;40.97;101142.66;5013530;28;20077;-74
2022/02/13 09:24:48;;;;;;;7.38;3.70;;;;;;;7.81;40.79;101139.56;4972824;28;1194332;-78
2022/02/13 09:27:19;;;;;;;6.00;3.75;;;;;;;7.86;40.78;101132.06;5014442;28;20046;-77
2022/02/13 09:29:46;;;;;;;7.70;3.53;;;;;;;7.92;40.54;101125.47;5014776;28;20165;-78
2022/02/13 09:32:13;;;;;;;8.18;4.07;;;;;;;7.98;40.56;101128.75;5015683;28;20378;-77
2022/02/13 09:34:39;;;;;;;8.45;3.85;;;;;;;8.03;40.49;101136.63;5018139;28;20075;-77
2022/02/13 09:37:06;;;;;;;6.13;3.50;;;;;;;8.09;40.43;101117.34;5022177;28;20046;-78
2022/02/13 09:39:32;;;;;;;6.78;3.80;;;;;;;8.13;40.41;101118.09;5013742;28;20103;-78
2022/02/13 09:41:59;;;;;;;6.93;4.05;;;;;;;8.19;40.51;101109.63;5015413;28;20049;-78
2022/02/13 09:44:26;;;;;;;5.60;3.20;;;;;;;8.25;40.33;101114.72;5014956;28;20127;-78
2022/02/13 09:46:53;;;;;;;5.43;3.05;;;;;;;8.31;40.74;101109.03;5014065;28;20394;-78
2022/02/13 09:49:22;;;;;;;6.65;3.67;;;;;;;8.38;40.28;101100.50;5014617;28;20054;-78
2022/02/13 09:51:49;;;;;;;5.85;3.47;;;;;;;8.46;40.43;101101.91;5018397;28;20046;-78
2022/02/13 09:54:18;;;;;;;7.22;3.45;;;;;;;8.53;40.77;101097.91;5014545;28;20050;-77
2022/02/13 09:56:47;;;;;;;5.50;3.38;;;;;;;8.60;40.48;101088.50;5014438;28;20081;-78
2022/02/13 09:59:14;;;;;;;6.15;4.00;;;;;;;8.67;40.66;101103.44;5012091;28;20077;-77
2022/02/13 10:01:45;;;;;;;6.13;3.35;;;;;;;8.76;40.25;101097.53;5014573;28;20078;-77
2022/02/13 10:04:12;;;;;;;5.80;3.08;;;;;;;8.84;40.26;101088.97;5014020;28;20061;-77
2022/02/13 10:06:40;;;;;;;5.78;3.70;;;;;;;8.92;40.35;101084.00;5018705;28;20045;-77
2022/02/13 10:09:08;;;;;;;6.55;3.20;;;;;;;9.00;40.19;101088.03;5015101;28;20046;-77
2022/02/13 10:11:38;;;;;;;5.47;3.13;;;;;;;9.09;40.18;101087.50;5025965;28;20077;-77
2022/02/13 10:14:15;;;;;;;5.55;3.00;;;;;;;9.19;39.81;101086.97;5014599;28;20432;-77
2022/02/13 10:16:45;;;;;;;5.72;3.58;;;;;;;9.27;40.00;101088.28;5011553;28;20461;-77
2022/02/13 10:19:22;;;;;;;6.25;3.13;;;;;;;9.35;40.25;101083.31;5014398;28;20049;-77
2022/02/13 10:21:51;;;;;;;5.47;3.28;;;;;;;9.41;40.04;101079.34;5009658;28;20050;-76
2022/02/13 10:24:30;;;;;;;6.05;3.53;;;;;;;9.53;39.32;101075.94;5017401;28;20073;-76
2022/02/13 10:26:56;;;;;;;6.75;4.03;;;;;;;9.58;39.81;101075.66;5009923;28;20132;-77
2022/02/13 10:29:27;;;;;;;5.75;3.60;;;;;;;9.64;39.70;101065.31;5011332;28;20050;-77
2022/02/13 10:32:14;;;;;;;5.25;3.17;;;;;;;9.73;38.91;101072.88;5011208;28;20136;-78
2022/02/13 10:34:58;;;;;;;5.70;3.30;;;;;;;9.81;38.83;101064.28;5013218;28;20057;-77
2022/02/13 10:37:48;;;;;;;5.43;3.00;;;;;;;9.86;38.91;101067.63;5014547;28;20058;-78
2022/02/13 10:40:26;;;;;;;6.00;3.42;;;;;;;9.95;38.98;101068.91;5012934;28;20567;-78
2022/02/13 10:43:05;;;;;;;6.68;3.17;;;;;;;10.01;38.69;101058.53;5014248;28;20057;-77
2022/02/13 10:45:33;;;;;;;6.50;3.42;;;;;;;10.05;39.58;101046.53;5013979;28;20082;-76
2022/02/13 10:48:04;;;;;;;5.15;3.50;;;;;;;10.13;39.24;101041.50;5014150;28;20637;-76
2022/02/13 10:50:37;;;;;;;5.68;3.20;;;;;;;10.19;39.31;101041.19;5011361;28;20058;-76
2022/02/13 10:53:06;;;;;;;6.32;3.38;;;;;;;10.25;39.07;101032.63;5005708;28;20493;-75
2022/02/13 10:55:35;;;;;;;5.68;3.40;;;;;;;10.32;39.35;101033.13;4993612;28;20108;-77
2022/02/13 10:58:05;;;;;;;5.25;3.33;;;;;;;10.39;38.98;101025.47;5008775;28;20401;-77
2022/02/13 11:00:32;;;;;;;6.07;3.08;;;;;;;10.44;39.34;101012.50;5013277;28;20081;-76
2022/02/13 11:03:04;;;;;;;5.28;3.13;;;;;;;10.52;38.83;101015.59;5013873;28;20050;-79
2022/02/13 11:05:34;;;;;;;6.05;3.78;;;;;;;10.57;39.14;101005.28;5007927;28;20125;-79
2022/02/13 11:08:22;;;;;;;7.15;3.33;;;;;;;10.66;38.45;101007.41;5019077;28;20052;-78
2022/02/13 11:10:50;;;;;;;5.32;3.10;;;;;;;10.72;39.38;100996.16;5027877;28;20085;-79
2022/02/13 11:13:26;;;;;;;5.10;3.13;;;;;;;10.84;38.41;100991.78;5013740;28;20088;-78
2022/02/13 11:15:53;;;;;;;6.03;3.33;;;;;;;10.89;39.07;100986.88;5012062;28;20619;-75
2022/02/13 11:18:24;;;;;;;5.43;3.25;;;;;;;10.97;38.81;100979.97;5023403;28;20057;-75
2022/02/13 11:20:54;;;;;;;4.82;3.03;;;;;;;11.04;39.00;100980.44;5006194;28;20659;-75
2022/02/13 11:23:29;;;;;;;7.32;3.70;;;;;;;11.14;38.15;100967.09;5013587;28;20054;-76
2022/02/13 11:26:07;;;;;;;9.00;3.83;;;;;;;11.21;38.29;100979.31;5011478;28;20081;-75
2022/02/13 11:28:44;;;;;;;4.93;3.30;;;;;;;11.27;38.03;100974.34;5012224;28;20101;-76
2022/02/13 11:31:42;;;;;;;6.45;3.13;;;;;;;11.31;38.01;100967.72;5003805;28;20517;-78
2022/02/13 11:34:13;;;;;;;5.60;3.05;;;;;;;11.40;38.16;100963.50;5010642;28;20054;-77
2022/02/13 11:36:50;;;;;;;5.20;3.20;;;;;;;11.48;37.50;100954.81;5009542;28;20085;-76
2022/02/13 11:39:35;;;;;;;5.05;3.08;;;;;;;11.53;37.51;100956.22;5022020;28;20132;-81